Terminal Aerodrome Forecast
Issued by NWS Cleveland, OH

Home | Current Version | Previous Version | Graphics & Text | Print | Product List | Glossary On
Versions: 1 2 3 4 5 6 7 8 9 10 11 12 13 14 15 16 17 18 19 20 21 22 23 24 25 26
000
FTUS41 KCLE 231200 AAA
TAFTOL
TAF AMD
KTOL 231200Z 2312/2412 10006KT P6SM OVC025
      TEMPO 2312/2314 5SM -SHRA BR OVC015
     FM231400 16005KT 6SM BR OVC015
     FM240600 06002KT 2SM -SHRA BR OVC007
     FM240900 06005KT 2SM -SHRA BR OVC004=

USA.gov is the U.S. government's official web portal to all federal, state and local government web resources and services.